sensor_id;sensor_type;location;lat;lon;timestamp;P1;durP1;ratioP1;P2;durP2;ratioP2
66380;SDS011;53177;52.648;1.214;2022-08-23T00:00:39;21.57;;;11.57;;
66380;SDS011;53177;52.648;1.214;2022-08-23T00:03:05;22.20;;;11.77;;
66380;SDS011;53177;52.648;1.214;2022-08-23T00:05:31;18.33;;;10.10;;
66380;SDS011;53177;52.648;1.214;2022-08-23T00:07:57;21.25;;;11.52;;
66380;SDS011;53177;52.648;1.214;2022-08-23T00:10:23;18.20;;;10.40;;
66380;SDS011;53177;52.648;1.214;2022-08-23T00:12:49;21.67;;;12.02;;
66380;SDS011;53177;52.648;1.214;2022-08-23T00:15:15;19.37;;;11.00;;
66380;SDS011;53177;52.648;1.214;2022-08-23T00:17:42;20.35;;;10.30;;
66380;SDS011;53177;52.648;1.214;2022-08-23T00:20:09;22.57;;;12.20;;
66380;SDS011;53177;52.648;1.214;2022-08-23T00:22:38;24.73;;;13.18;;
66380;SDS011;53177;52.648;1.214;2022-08-23T00:25:05;24.17;;;12.98;;
66380;SDS011;53177;52.648;1.214;2022-08-23T00:27:31;26.27;;;13.25;;
66380;SDS011;53177;52.648;1.214;2022-08-23T00:29:57;21.07;;;12.87;;
66380;SDS011;53177;52.648;1.214;2022-08-23T00:32:24;22.75;;;12.93;;
66380;SDS011;53177;52.648;1.214;2022-08-23T00:34:52;28.17;;;13.60;;
66380;SDS011;53177;52.648;1.214;2022-08-23T00:37:17;25.73;;;12.60;;
66380;SDS011;53177;52.648;1.214;2022-08-23T00:39:43;23.20;;;12.38;;
66380;SDS011;53177;52.648;1.214;2022-08-23T00:42:25;21.80;;;11.80;;
66380;SDS011;53177;52.648;1.214;2022-08-23T00:45:18;20.73;;;10.48;;
66380;SDS011;53177;52.648;1.214;2022-08-23T00:48:06;22.38;;;11.63;;
66380;SDS011;53177;52.648;1.214;2022-08-23T00:53:09;20.80;;;10.63;;
66380;SDS011;53177;52.648;1.214;2022-08-23T00:55:49;21.25;;;11.85;;
66380;SDS011;53177;52.648;1.214;2022-08-23T00:58:17;21.50;;;12.37;;
66380;SDS011;53177;52.648;1.214;2022-08-23T01:00:46;23.52;;;12.30;;
66380;SDS011;53177;52.648;1.214;2022-08-23T01:03:14;21.35;;;11.68;;
66380;SDS011;53177;52.648;1.214;2022-08-23T01:08:32;22.10;;;12.18;;
66380;SDS011;53177;52.648;1.214;2022-08-23T01:11:01;19.73;;;10.50;;
66380;SDS011;53177;52.648;1.214;2022-08-23T01:13:39;20.83;;;11.23;;
66380;SDS011;53177;52.648;1.214;2022-08-23T01:16:14;21.80;;;10.55;;
66380;SDS011;53177;52.648;1.214;2022-08-23T01:18:43;21.00;;;9.63;;
66380;SDS011;53177;52.648;1.214;2022-08-23T01:24:04;19.30;;;9.77;;
66380;SDS011;53177;52.648;1.214;2022-08-23T01:26:30;18.85;;;10.48;;
66380;SDS011;53177;52.648;1.214;2022-08-23T01:28:59;21.70;;;11.20;;
66380;SDS011;53177;52.648;1.214;2022-08-23T01:31:26;23.08;;;10.68;;
66380;SDS011;53177;52.648;1.214;2022-08-23T01:33:56;22.75;;;11.00;;
66380;SDS011;53177;52.648;1.214;2022-08-23T01:36:24;21.17;;;9.30;;
66380;SDS011;53177;52.648;1.214;2022-08-23T01:38:51;19.38;;;11.23;;
66380;SDS011;53177;52.648;1.214;2022-08-23T01:41:16;20.00;;;9.88;;
66380;SDS011;53177;52.648;1.214;2022-08-23T01:43:42;23.40;;;10.93;;
66380;SDS011;53177;52.648;1.214;2022-08-23T01:46:11;18.67;;;10.13;;
66380;SDS011;53177;52.648;1.214;2022-08-23T01:48:39;16.52;;;9.15;;
66380;SDS011;53177;52.648;1.214;2022-08-23T01:51:05;22.05;;;10.15;;
66380;SDS011;53177;52.648;1.214;2022-08-23T01:53:31;18.80;;;9.70;;
66380;SDS011;53177;52.648;1.214;2022-08-23T01:55:57;18.92;;;8.27;;
66380;SDS011;53177;52.648;1.214;2022-08-23T01:58:25;18.77;;;10.40;;
66380;SDS011;53177;52.648;1.214;2022-08-23T02:00:51;17.38;;;8.45;;
66380;SDS011;53177;52.648;1.214;2022-08-23T02:03:17;18.02;;;9.70;;
66380;SDS011;53177;52.648;1.214;2022-08-23T02:05:43;20.53;;;9.77;;
66380;SDS011;53177;52.648;1.214;2022-08-23T02:08:09;16.52;;;9.25;;
66380;SDS011;53177;52.648;1.214;2022-08-23T02:10:54;20.52;;;10.50;;
66380;SDS011;53177;52.648;1.214;2022-08-23T02:13:19;18.87;;;9.70;;
66380;SDS011;53177;52.648;1.214;2022-08-23T02:15:46;21.10;;;9.93;;
66380;SDS011;53177;52.648;1.214;2022-08-23T02:18:15;18.08;;;9.85;;
66380;SDS011;53177;52.648;1.214;2022-08-23T02:20:44;18.57;;;9.10;;
66380;SDS011;53177;52.648;1.214;2022-08-23T02:23:12;19.20;;;9.97;;
66380;SDS011;53177;52.648;1.214;2022-08-23T02:25:37;18.83;;;9.15;;
66380;SDS011;53177;52.648;1.214;2022-08-23T02:28:04;15.52;;;8.02;;
66380;SDS011;53177;52.648;1.214;2022-08-23T02:30:29;16.10;;;8.57;;
66380;SDS011;53177;52.648;1.214;2022-08-23T02:32:55;15.77;;;7.70;;
66380;SDS011;53177;52.648;1.214;2022-08-23T02:35:20;13.67;;;6.87;;
66380;SDS011;53177;52.648;1.214;2022-08-23T02:37:47;16.58;;;8.40;;
66380;SDS011;53177;52.648;1.214;2022-08-23T02:40:13;17.50;;;7.88;;
66380;SDS011;53177;52.648;1.214;2022-08-23T02:42:40;19.23;;;8.20;;
66380;SDS011;53177;52.648;1.214;2022-08-23T02:45:06;18.25;;;7.55;;
66380;SDS011;53177;52.648;1.214;2022-08-23T02:47:32;18.05;;;8.05;;
66380;SDS011;53177;52.648;1.214;2022-08-23T02:50:00;18.03;;;7.40;;
66380;SDS011;53177;52.648;1.214;2022-08-23T02:52:30;13.50;;;7.28;;
66380;SDS011;53177;52.648;1.214;2022-08-23T02:54:55;15.20;;;6.70;;
66380;SDS011;53177;52.648;1.214;2022-08-23T02:57:20;16.83;;;7.35;;
66380;SDS011;53177;52.648;1.214;2022-08-23T02:59:46;16.57;;;6.70;;
66380;SDS011;53177;52.648;1.214;2022-08-23T03:02:11;15.40;;;6.80;;
66380;SDS011;53177;52.648;1.214;2022-08-23T03:04:37;16.40;;;7.40;;
66380;SDS011;53177;52.648;1.214;2022-08-23T03:07:04;13.88;;;6.00;;
66380;SDS011;53177;52.648;1.214;2022-08-23T03:09:29;12.07;;;6.17;;
66380;SDS011;53177;52.648;1.214;2022-08-23T03:11:54;10.23;;;5.25;;
66380;SDS011;53177;52.648;1.214;2022-08-23T03:14:20;11.47;;;6.10;;
66380;SDS011;53177;52.648;1.214;2022-08-23T03:16:46;12.70;;;5.47;;
66380;SDS011;53177;52.648;1.214;2022-08-23T03:19:11;14.47;;;6.00;;
66380;SDS011;53177;52.648;1.214;2022-08-23T03:21:37;13.77;;;6.53;;
66380;SDS011;53177;52.648;1.214;2022-08-23T03:24:02;13.50;;;6.40;;
66380;SDS011;53177;52.648;1.214;2022-08-23T03:26:28;15.38;;;6.25;;
66380;SDS011;53177;52.648;1.214;2022-08-23T03:28:53;12.97;;;5.80;;
66380;SDS011;53177;52.648;1.214;2022-08-23T03:31:20;13.38;;;5.50;;
66380;SDS011;53177;52.648;1.214;2022-08-23T03:33:45;12.57;;;5.27;;
66380;SDS011;53177;52.648;1.214;2022-08-23T03:36:11;9.60;;;4.70;;
66380;SDS011;53177;52.648;1.214;2022-08-23T03:38:37;13.30;;;5.80;;
66380;SDS011;53177;52.648;1.214;2022-08-23T03:41:03;10.95;;;5.15;;
66380;SDS011;53177;52.648;1.214;2022-08-23T03:43:29;11.60;;;5.43;;
66380;SDS011;53177;52.648;1.214;2022-08-23T03:45:55;9.30;;;4.40;;
66380;SDS011;53177;52.648;1.214;2022-08-23T03:48:20;10.13;;;4.83;;
66380;SDS011;53177;52.648;1.214;2022-08-23T03:50:46;12.18;;;4.90;;
66380;SDS011;53177;52.648;1.214;2022-08-23T03:53:11;10.90;;;5.00;;
66380;SDS011;53177;52.648;1.214;2022-08-23T03:55:37;10.13;;;4.90;;
66380;SDS011;53177;52.648;1.214;2022-08-23T03:58:04;9.65;;;5.00;;
66380;SDS011;53177;52.648;1.214;2022-08-23T04:00:29;13.57;;;4.87;;
66380;SDS011;53177;52.648;1.214;2022-08-23T04:02:55;11.95;;;4.75;;
66380;SDS011;53177;52.648;1.214;2022-08-23T04:05:20;12.83;;;4.77;;
66380;SDS011;53177;52.648;1.214;2022-08-23T04:07:46;9.23;;;4.20;;
66380;SDS011;53177;52.648;1.214;2022-08-23T04:10:12;12.70;;;4.97;;
66380;SDS011;53177;52.648;1.214;2022-08-23T04:12:40;8.68;;;4.53;;
66380;SDS011;53177;52.648;1.214;2022-08-23T04:15:06;8.65;;;3.90;;
66380;SDS011;53177;52.648;1.214;2022-08-23T04:17:33;9.53;;;4.67;;
66380;SDS011;53177;52.648;1.214;2022-08-23T04:20:00;10.43;;;4.70;;
66380;SDS011;53177;52.648;1.214;2022-08-23T04:22:29;7.40;;;3.60;;
66380;SDS011;53177;52.648;1.214;2022-08-23T04:24:55;11.70;;;4.87;;
66380;SDS011;53177;52.648;1.214;2022-08-23T04:27:20;8.97;;;4.43;;
66380;SDS011;53177;52.648;1.214;2022-08-23T04:29:47;9.83;;;4.33;;
66380;SDS011;53177;52.648;1.214;2022-08-23T04:32:15;9.60;;;4.57;;
66380;SDS011;53177;52.648;1.214;2022-08-23T04:34:42;12.85;;;5.20;;
66380;SDS011;53177;52.648;1.214;2022-08-23T04:37:08;8.07;;;3.97;;
66380;SDS011;53177;52.648;1.214;2022-08-23T04:39:35;8.43;;;4.30;;
66380;SDS011;53177;52.648;1.214;2022-08-23T04:42:20;7.97;;;4.30;;
66380;SDS011;53177;52.648;1.214;2022-08-23T04:44:47;8.73;;;4.28;;
66380;SDS011;53177;52.648;1.214;2022-08-23T04:47:13;9.30;;;4.00;;
66380;SDS011;53177;52.648;1.214;2022-08-23T04:49:38;9.38;;;4.70;;
66380;SDS011;53177;52.648;1.214;2022-08-23T04:52:04;11.47;;;5.20;;
66380;SDS011;53177;52.648;1.214;2022-08-23T04:54:33;11.57;;;5.67;;
66380;SDS011;53177;52.648;1.214;2022-08-23T04:57:02;10.02;;;4.95;;
66380;SDS011;53177;52.648;1.214;2022-08-23T04:59:29;8.40;;;3.90;;
66380;SDS011;53177;52.648;1.214;2022-08-23T05:01:54;13.13;;;5.37;;
66380;SDS011;53177;52.648;1.214;2022-08-23T05:04:19;8.80;;;4.33;;
66380;SDS011;53177;52.648;1.214;2022-08-23T05:06:45;10.30;;;4.70;;
66380;SDS011;53177;52.648;1.214;2022-08-23T05:09:11;7.70;;;3.87;;
66380;SDS011;53177;52.648;1.214;2022-08-23T05:11:36;10.67;;;4.80;;
66380;SDS011;53177;52.648;1.214;2022-08-23T05:14:02;11.03;;;4.70;;
66380;SDS011;53177;52.648;1.214;2022-08-23T05:16:27;10.50;;;4.37;;
66380;SDS011;53177;52.648;1.214;2022-08-23T05:18:52;8.73;;;4.60;;
66380;SDS011;53177;52.648;1.214;2022-08-23T05:21:19;11.67;;;5.37;;
66380;SDS011;53177;52.648;1.214;2022-08-23T05:23:46;9.63;;;4.60;;
66380;SDS011;53177;52.648;1.214;2022-08-23T05:26:12;8.33;;;4.47;;
66380;SDS011;53177;52.648;1.214;2022-08-23T05:28:41;9.38;;;3.90;;
66380;SDS011;53177;52.648;1.214;2022-08-23T05:33:34;12.20;;;5.43;;
66380;SDS011;53177;52.648;1.214;2022-08-23T05:36:01;10.52;;;5.40;;
66380;SDS011;53177;52.648;1.214;2022-08-23T05:38:28;10.57;;;5.50;;
66380;SDS011;53177;52.648;1.214;2022-08-23T05:40:54;13.13;;;6.45;;
66380;SDS011;53177;52.648;1.214;2022-08-23T05:43:22;12.52;;;5.55;;
66380;SDS011;53177;52.648;1.214;2022-08-23T05:45:51;12.15;;;5.93;;
66380;SDS011;53177;52.648;1.214;2022-08-23T05:48:34;13.73;;;6.45;;
66380;SDS011;53177;52.648;1.214;2022-08-23T05:51:13;13.43;;;6.23;;
66380;SDS011;53177;52.648;1.214;2022-08-23T05:53:40;13.80;;;6.47;;
66380;SDS011;53177;52.648;1.214;2022-08-23T05:56:49;8.50;;;4.70;;
66380;SDS011;53177;52.648;1.214;2022-08-23T05:59:01;12.52;;;5.68;;
66380;SDS011;53177;52.648;1.214;2022-08-23T06:01:30;9.60;;;4.93;;
66380;SDS011;53177;52.648;1.214;2022-08-23T06:04:00;9.43;;;4.60;;
66380;SDS011;53177;52.648;1.214;2022-08-23T06:06:27;11.43;;;6.35;;
66380;SDS011;53177;52.648;1.214;2022-08-23T06:08:53;11.57;;;5.82;;
66380;SDS011;53177;52.648;1.214;2022-08-23T06:11:20;10.97;;;5.30;;
66380;SDS011;53177;52.648;1.214;2022-08-23T06:13:51;11.68;;;6.10;;
66380;SDS011;53177;52.648;1.214;2022-08-23T06:16:23;9.93;;;5.40;;
66380;SDS011;53177;52.648;1.214;2022-08-23T06:18:50;10.13;;;5.43;;
66380;SDS011;53177;52.648;1.214;2022-08-23T06:21:17;12.02;;;5.85;;
66380;SDS011;53177;52.648;1.214;2022-08-23T06:23:43;9.00;;;4.40;;
66380;SDS011;53177;52.648;1.214;2022-08-23T06:26:16;8.45;;;4.80;;
66380;SDS011;53177;52.648;1.214;2022-08-23T06:28:43;9.05;;;4.50;;
66380;SDS011;53177;52.648;1.214;2022-08-23T06:31:10;9.23;;;4.50;;
66380;SDS011;53177;52.648;1.214;2022-08-23T06:33:36;9.33;;;5.07;;
66380;SDS011;53177;52.648;1.214;2022-08-23T06:36:11;8.70;;;4.40;;
66380;SDS011;53177;52.648;1.214;2022-08-23T06:38:37;8.37;;;4.20;;
66380;SDS011;53177;52.648;1.214;2022-08-23T06:41:06;8.43;;;4.00;;
66380;SDS011;53177;52.648;1.214;2022-08-23T06:43:34;10.90;;;4.80;;
66380;SDS011;53177;52.648;1.214;2022-08-23T06:46:08;13.63;;;5.30;;
66380;SDS011;53177;52.648;1.214;2022-08-23T06:48:38;8.27;;;4.32;;
66380;SDS011;53177;52.648;1.214;2022-08-23T06:51:10;8.57;;;3.83;;
66380;SDS011;53177;52.648;1.214;2022-08-23T06:53:37;8.75;;;3.65;;
66380;SDS011;53177;52.648;1.214;2022-08-23T06:56:03;8.73;;;4.00;;
66380;SDS011;53177;52.648;1.214;2022-08-23T06:58:28;7.53;;;3.63;;
66380;SDS011;53177;52.648;1.214;2022-08-23T07:00:54;7.47;;;3.53;;
66380;SDS011;53177;52.648;1.214;2022-08-23T07:03:19;6.93;;;3.10;;
66380;SDS011;53177;52.648;1.214;2022-08-23T07:05:45;6.15;;;2.92;;
66380;SDS011;53177;52.648;1.214;2022-08-23T07:08:10;8.00;;;3.10;;
66380;SDS011;53177;52.648;1.214;2022-08-23T07:10:36;7.10;;;3.00;;
66380;SDS011;53177;52.648;1.214;2022-08-23T07:13:01;6.97;;;3.10;;
66380;SDS011;53177;52.648;1.214;2022-08-23T07:15:27;5.68;;;2.60;;
66380;SDS011;53177;52.648;1.214;2022-08-23T07:17:53;6.83;;;3.00;;
66380;SDS011;53177;52.648;1.214;2022-08-23T07:20:19;5.10;;;2.60;;
66380;SDS011;53177;52.648;1.214;2022-08-23T07:22:45;6.72;;;2.80;;
66380;SDS011;53177;52.648;1.214;2022-08-23T07:25:10;7.13;;;3.20;;
66380;SDS011;53177;52.648;1.214;2022-08-23T07:27:35;6.47;;;2.90;;
66380;SDS011;53177;52.648;1.214;2022-08-23T07:30:01;7.03;;;3.07;;
66380;SDS011;53177;52.648;1.214;2022-08-23T07:32:31;8.10;;;2.83;;
66380;SDS011;53177;52.648;1.214;2022-08-23T07:34:56;6.33;;;2.50;;
66380;SDS011;53177;52.648;1.214;2022-08-23T07:37:22;5.23;;;2.10;;
66380;SDS011;53177;52.648;1.214;2022-08-23T07:39:48;5.30;;;1.92;;
66380;SDS011;53177;52.648;1.214;2022-08-23T07:42:14;5.22;;;1.73;;
66380;SDS011;53177;52.648;1.214;2022-08-23T07:44:39;4.00;;;1.50;;
66380;SDS011;53177;52.648;1.214;2022-08-23T07:47:05;4.60;;;1.30;;
66380;SDS011;53177;52.648;1.214;2022-08-23T07:49:31;4.40;;;1.60;;
66380;SDS011;53177;52.648;1.214;2022-08-23T07:51:56;5.77;;;1.63;;
66380;SDS011;53177;52.648;1.214;2022-08-23T07:54:25;5.70;;;1.80;;
66380;SDS011;53177;52.648;1.214;2022-08-23T07:56:52;4.07;;;1.45;;
66380;SDS011;53177;52.648;1.214;2022-08-23T07:59:17;3.47;;;1.20;;
66380;SDS011;53177;52.648;1.214;2022-08-23T08:01:43;3.97;;;1.40;;
66380;SDS011;53177;52.648;1.214;2022-08-23T08:04:08;4.28;;;1.55;;
66380;SDS011;53177;52.648;1.214;2022-08-23T08:06:37;5.40;;;1.30;;
66380;SDS011;53177;52.648;1.214;2022-08-23T08:09:08;4.10;;;1.48;;
66380;SDS011;53177;52.648;1.214;2022-08-23T08:11:34;3.75;;;1.17;;
66380;SDS011;53177;52.648;1.214;2022-08-23T08:14:05;3.20;;;1.10;;
66380;SDS011;53177;52.648;1.214;2022-08-23T08:16:33;3.83;;;1.10;;
66380;SDS011;53177;52.648;1.214;2022-08-23T08:19:03;4.35;;;1.30;;
66380;SDS011;53177;52.648;1.214;2022-08-23T08:21:30;4.65;;;1.50;;
66380;SDS011;53177;52.648;1.214;2022-08-23T08:23:56;3.87;;;1.53;;
66380;SDS011;53177;52.648;1.214;2022-08-23T08:26:22;5.28;;;1.88;;
66380;SDS011;53177;52.648;1.214;2022-08-23T08:28:49;4.40;;;2.30;;
66380;SDS011;53177;52.648;1.214;2022-08-23T08:31:14;4.57;;;1.98;;
66380;SDS011;53177;52.648;1.214;2022-08-23T08:33:40;5.40;;;1.90;;
66380;SDS011;53177;52.648;1.214;2022-08-23T08:36:06;5.67;;;1.80;;
66380;SDS011;53177;52.648;1.214;2022-08-23T08:38:32;5.20;;;2.00;;
66380;SDS011;53177;52.648;1.214;2022-08-23T08:41:16;4.47;;;1.63;;
66380;SDS011;53177;52.648;1.214;2022-08-23T08:44:06;4.28;;;1.40;;
66380;SDS011;53177;52.648;1.214;2022-08-23T08:46:46;8.30;;;1.58;;
66380;SDS011;53177;52.648;1.214;2022-08-23T08:49:15;5.13;;;1.53;;
66380;SDS011;53177;52.648;1.214;2022-08-23T08:51:55;5.18;;;1.40;;
66380;SDS011;53177;52.648;1.214;2022-08-23T08:54:27;3.63;;;1.30;;
66380;SDS011;53177;52.648;1.214;2022-08-23T08:56:56;4.28;;;1.40;;
66380;SDS011;53177;52.648;1.214;2022-08-23T08:59:26;4.68;;;1.73;;
66380;SDS011;53177;52.648;1.214;2022-08-23T09:02:04;4.00;;;1.30;;
66380;SDS011;53177;52.648;1.214;2022-08-23T09:04:31;4.35;;;1.20;;
66380;SDS011;53177;52.648;1.214;2022-08-23T09:07:11;4.43;;;1.10;;
66380;SDS011;53177;52.648;1.214;2022-08-23T09:12:31;3.60;;;1.07;;
66380;SDS011;53177;52.648;1.214;2022-08-23T09:18:04;3.47;;;1.40;;
66380;SDS011;53177;52.648;1.214;2022-08-23T09:20:36;3.58;;;1.00;;
66380;SDS011;53177;52.648;1.214;2022-08-23T09:25:31;3.63;;;1.13;;
66380;SDS011;53177;52.648;1.214;2022-08-23T09:27:57;3.47;;;1.10;;
66380;SDS011;53177;52.648;1.214;2022-08-23T09:30:22;3.50;;;1.17;;
66380;SDS011;53177;52.648;1.214;2022-08-23T09:33:13;4.05;;;1.30;;
66380;SDS011;53177;52.648;1.214;2022-08-23T09:35:41;2.75;;;0.70;;
66380;SDS011;53177;52.648;1.214;2022-08-23T09:40:47;3.60;;;0.90;;
66380;SDS011;53177;52.648;1.214;2022-08-23T09:43:19;2.92;;;0.80;;
66380;SDS011;53177;52.648;1.214;2022-08-23T09:51:23;2.90;;;0.80;;
66380;SDS011;53177;52.648;1.214;2022-08-23T09:54:06;3.08;;;1.00;;
66380;SDS011;53177;52.648;1.214;2022-08-23T09:56:41;2.90;;;1.00;;
66380;SDS011;53177;52.648;1.214;2022-08-23T10:01:55;3.70;;;1.30;;
66380;SDS011;53177;52.648;1.214;2022-08-23T10:07:22;4.00;;;1.20;;
66380;SDS011;53177;52.648;1.214;2022-08-23T10:09:51;3.80;;;1.00;;
66380;SDS011;53177;52.648;1.214;2022-08-23T10:12:16;2.72;;;0.80;;
66380;SDS011;53177;52.648;1.214;2022-08-23T10:14:42;3.10;;;1.10;;
66380;SDS011;53177;52.648;1.214;2022-08-23T10:20:15;3.00;;;0.73;;
66380;SDS011;53177;52.648;1.214;2022-08-23T10:23:03;3.17;;;0.90;;
66380;SDS011;53177;52.648;1.214;2022-08-23T10:25:49;3.28;;;1.00;;
66380;SDS011;53177;52.648;1.214;2022-08-23T10:28:34;2.67;;;0.80;;
66380;SDS011;53177;52.648;1.214;2022-08-23T10:34:23;2.97;;;0.80;;
66380;SDS011;53177;52.648;1.214;2022-08-23T10:37:03;3.05;;;0.70;;
66380;SDS011;53177;52.648;1.214;2022-08-23T10:45:28;3.77;;;0.80;;
66380;SDS011;53177;52.648;1.214;2022-08-23T10:50:42;2.80;;;0.70;;
66380;SDS011;53177;52.648;1.214;2022-08-23T10:53:13;2.88;;;0.60;;
66380;SDS011;53177;52.648;1.214;2022-08-23T10:55:43;2.88;;;0.70;;
66380;SDS011;53177;52.648;1.214;2022-08-23T10:58:27;3.67;;;0.60;;
66380;SDS011;53177;52.648;1.214;2022-08-23T11:00:56;3.08;;;0.50;;
66380;SDS011;53177;52.648;1.214;2022-08-23T11:03:28;2.60;;;0.70;;
66380;SDS011;53177;52.648;1.214;2022-08-23T11:08:58;3.05;;;0.50;;
66380;SDS011;53177;52.648;1.214;2022-08-23T11:14:31;2.38;;;0.60;;
66380;SDS011;53177;52.648;1.214;2022-08-23T11:17:06;2.72;;;0.70;;
66380;SDS011;53177;52.648;1.214;2022-08-23T11:19:52;2.83;;;0.63;;
66380;SDS011;53177;52.648;1.214;2022-08-23T11:22:22;2.60;;;0.63;;
66380;SDS011;53177;52.648;1.214;2022-08-23T11:24:59;2.50;;;0.70;;
66380;SDS011;53177;52.648;1.214;2022-08-23T11:33:05;3.50;;;0.77;;
66380;SDS011;53177;52.648;1.214;2022-08-23T11:46:47;2.53;;;0.73;;
66380;SDS011;53177;52.648;1.214;2022-08-23T12:06:42;3.30;;;0.80;;
66380;SDS011;53177;52.648;1.214;2022-08-23T12:16:58;3.05;;;0.80;;
66380;SDS011;53177;52.648;1.214;2022-08-23T12:19:36;2.60;;;0.70;;
66380;SDS011;53177;52.648;1.214;2022-08-23T12:22:11;2.50;;;0.70;;
66380;SDS011;53177;52.648;1.214;2022-08-23T12:24:53;2.78;;;0.60;;
66380;SDS011;53177;52.648;1.214;2022-08-23T12:27:31;2.50;;;0.70;;
66380;SDS011;53177;52.648;1.214;2022-08-23T12:30:08;2.75;;;0.80;;
66380;SDS011;53177;52.648;1.214;2022-08-23T12:32:44;2.40;;;0.67;;
66380;SDS011;53177;52.648;1.214;2022-08-23T12:40:44;2.50;;;0.60;;
66380;SDS011;53177;52.648;1.214;2022-08-23T12:45:41;2.87;;;0.70;;
66380;SDS011;53177;52.648;1.214;2022-08-23T12:48:18;3.17;;;0.88;;
66380;SDS011;53177;52.648;1.214;2022-08-23T12:50:55;3.93;;;0.80;;
66380;SDS011;53177;52.648;1.214;2022-08-23T12:53:28;3.25;;;0.70;;
66380;SDS011;53177;52.648;1.214;2022-08-23T12:56:25;3.03;;;0.70;;
66380;SDS011;53177;52.648;1.214;2022-08-23T12:58:54;3.70;;;0.98;;
66380;SDS011;53177;52.648;1.214;2022-08-23T13:01:29;3.20;;;0.82;;
66380;SDS011;53177;52.648;1.214;2022-08-23T13:04:01;2.70;;;0.80;;
66380;SDS011;53177;52.648;1.214;2022-08-23T13:06:30;3.92;;;0.88;;
66380;SDS011;53177;52.648;1.214;2022-08-23T13:09:06;2.83;;;0.82;;
66380;SDS011;53177;52.648;1.214;2022-08-23T13:11:38;2.60;;;0.73;;
66380;SDS011;53177;52.648;1.214;2022-08-23T13:19:42;3.08;;;0.90;;
66380;SDS011;53177;52.648;1.214;2022-08-23T13:27:24;4.28;;;1.30;;
66380;SDS011;53177;52.648;1.214;2022-08-23T13:32:28;3.00;;;1.10;;
66380;SDS011;53177;52.648;1.214;2022-08-23T13:35:21;2.80;;;1.00;;
66380;SDS011;53177;52.648;1.214;2022-08-23T13:37:46;3.00;;;0.95;;
66380;SDS011;53177;52.648;1.214;2022-08-23T13:40:17;2.97;;;1.10;;
66380;SDS011;53177;52.648;1.214;2022-08-23T13:43:00;3.73;;;0.93;;
66380;SDS011;53177;52.648;1.214;2022-08-23T13:45:33;3.42;;;1.10;;
66380;SDS011;53177;52.648;1.214;2022-08-23T13:48:08;5.93;;;1.25;;
66380;SDS011;53177;52.648;1.214;2022-08-23T13:50:38;3.40;;;1.25;;
66380;SDS011;53177;52.648;1.214;2022-08-23T13:53:04;3.70;;;1.20;;
66380;SDS011;53177;52.648;1.214;2022-08-23T13:55:31;3.03;;;1.17;;
66380;SDS011;53177;52.648;1.214;2022-08-23T13:58:03;3.40;;;1.17;;
66380;SDS011;53177;52.648;1.214;2022-08-23T14:00:34;3.72;;;1.30;;
66380;SDS011;53177;52.648;1.214;2022-08-23T14:02:59;3.10;;;1.20;;
66380;SDS011;53177;52.648;1.214;2022-08-23T14:05:25;3.87;;;1.30;;
66380;SDS011;53177;52.648;1.214;2022-08-23T14:07:50;4.10;;;1.30;;
66380;SDS011;53177;52.648;1.214;2022-08-23T14:10:18;3.43;;;1.10;;
66380;SDS011;53177;52.648;1.214;2022-08-23T14:12:49;4.18;;;1.40;;
66380;SDS011;53177;52.648;1.214;2022-08-23T14:15:17;4.10;;;1.20;;
66380;SDS011;53177;52.648;1.214;2022-08-23T14:17:44;3.42;;;1.20;;
66380;SDS011;53177;52.648;1.214;2022-08-23T14:20:14;3.90;;;1.30;;
66380;SDS011;53177;52.648;1.214;2022-08-23T14:22:43;4.03;;;1.30;;
66380;SDS011;53177;52.648;1.214;2022-08-23T14:25:09;3.50;;;1.27;;
66380;SDS011;53177;52.648;1.214;2022-08-23T14:27:37;3.40;;;1.40;;
66380;SDS011;53177;52.648;1.214;2022-08-23T14:30:05;4.07;;;1.30;;
66380;SDS011;53177;52.648;1.214;2022-08-23T14:32:32;3.97;;;1.45;;
66380;SDS011;53177;52.648;1.214;2022-08-23T14:34:57;4.03;;;1.27;;
66380;SDS011;53177;52.648;1.214;2022-08-23T14:37:22;4.00;;;1.77;;
66380;SDS011;53177;52.648;1.214;2022-08-23T14:39:48;4.15;;;1.30;;
66380;SDS011;53177;52.648;1.214;2022-08-23T14:42:14;3.70;;;1.40;;
66380;SDS011;53177;52.648;1.214;2022-08-23T14:44:43;4.78;;;1.40;;
66380;SDS011;53177;52.648;1.214;2022-08-23T14:47:08;3.43;;;1.30;;
66380;SDS011;53177;52.648;1.214;2022-08-23T14:49:34;4.30;;;1.60;;
66380;SDS011;53177;52.648;1.214;2022-08-23T14:52:00;4.10;;;1.50;;
66380;SDS011;53177;52.648;1.214;2022-08-23T14:54:26;4.80;;;1.40;;
66380;SDS011;53177;52.648;1.214;2022-08-23T14:56:52;5.80;;;1.40;;
66380;SDS011;53177;52.648;1.214;2022-08-23T14:59:18;4.30;;;1.40;;
66380;SDS011;53177;52.648;1.214;2022-08-23T15:01:43;4.47;;;1.40;;
66380;SDS011;53177;52.648;1.214;2022-08-23T15:04:11;3.90;;;1.40;;
66380;SDS011;53177;52.648;1.214;2022-08-23T15:06:41;3.38;;;1.20;;
66380;SDS011;53177;52.648;1.214;2022-08-23T15:09:07;3.60;;;1.30;;
66380;SDS011;53177;52.648;1.214;2022-08-23T15:11:32;3.80;;;1.43;;
66380;SDS011;53177;52.648;1.214;2022-08-23T15:13:58;7.17;;;1.57;;
66380;SDS011;53177;52.648;1.214;2022-08-23T15:16:23;5.28;;;1.40;;
66380;SDS011;53177;52.648;1.214;2022-08-23T15:18:50;3.13;;;1.30;;
66380;SDS011;53177;52.648;1.214;2022-08-23T15:21:16;3.05;;;1.17;;
66380;SDS011;53177;52.648;1.214;2022-08-23T15:23:42;3.40;;;1.20;;
66380;SDS011;53177;52.648;1.214;2022-08-23T15:26:08;3.80;;;1.30;;
66380;SDS011;53177;52.648;1.214;2022-08-23T15:28:35;3.00;;;1.00;;
66380;SDS011;53177;52.648;1.214;2022-08-23T15:31:01;3.75;;;1.33;;
66380;SDS011;53177;52.648;1.214;2022-08-23T15:33:27;5.32;;;1.30;;
66380;SDS011;53177;52.648;1.214;2022-08-23T15:35:54;3.00;;;1.10;;
66380;SDS011;53177;52.648;1.214;2022-08-23T15:38:20;3.10;;;1.08;;
66380;SDS011;53177;52.648;1.214;2022-08-23T15:40:47;3.47;;;1.20;;
66380;SDS011;53177;52.648;1.214;2022-08-23T15:43:14;4.10;;;1.20;;
66380;SDS011;53177;52.648;1.214;2022-08-23T15:45:40;3.33;;;1.17;;
66380;SDS011;53177;52.648;1.214;2022-08-23T15:48:10;4.30;;;1.03;;
66380;SDS011;53177;52.648;1.214;2022-08-23T15:50:44;3.05;;;1.10;;
66380;SDS011;53177;52.648;1.214;2022-08-23T15:53:11;2.90;;;0.98;;
66380;SDS011;53177;52.648;1.214;2022-08-23T15:55:37;3.75;;;1.00;;
66380;SDS011;53177;52.648;1.214;2022-08-23T15:58:04;3.80;;;0.98;;
66380;SDS011;53177;52.648;1.214;2022-08-23T16:00:30;2.93;;;0.80;;
66380;SDS011;53177;52.648;1.214;2022-08-23T16:02:55;4.33;;;1.10;;
66380;SDS011;53177;52.648;1.214;2022-08-23T16:05:21;3.37;;;1.00;;
66380;SDS011;53177;52.648;1.214;2022-08-23T16:07:47;3.60;;;0.80;;
66380;SDS011;53177;52.648;1.214;2022-08-23T16:10:15;2.60;;;0.70;;
66380;SDS011;53177;52.648;1.214;2022-08-23T16:12:41;3.78;;;1.25;;
66380;SDS011;53177;52.648;1.214;2022-08-23T16:15:07;3.00;;;0.90;;
66380;SDS011;53177;52.648;1.214;2022-08-23T16:17:36;3.10;;;0.77;;
66380;SDS011;53177;52.648;1.214;2022-08-23T16:20:03;3.20;;;0.77;;
66380;SDS011;53177;52.648;1.214;2022-08-23T16:22:30;2.70;;;0.70;;
66380;SDS011;53177;52.648;1.214;2022-08-23T16:24:55;3.43;;;0.80;;
66380;SDS011;53177;52.648;1.214;2022-08-23T16:27:21;2.60;;;0.70;;
66380;SDS011;53177;52.648;1.214;2022-08-23T16:29:46;2.60;;;0.70;;
66380;SDS011;53177;52.648;1.214;2022-08-23T16:32:12;3.65;;;0.73;;
66380;SDS011;53177;52.648;1.214;2022-08-23T16:34:37;5.07;;;0.90;;
66380;SDS011;53177;52.648;1.214;2022-08-23T16:37:03;3.30;;;0.70;;
66380;SDS011;53177;52.648;1.214;2022-08-23T16:39:30;3.80;;;0.80;;
66380;SDS011;53177;52.648;1.214;2022-08-23T16:41:58;4.15;;;0.90;;
66380;SDS011;53177;52.648;1.214;2022-08-23T16:44:29;3.43;;;0.70;;
66380;SDS011;53177;52.648;1.214;2022-08-23T16:46:54;4.95;;;0.80;;